Time;durP1;ratioP1;P1;durP2;ratioP2;P2;SDS_P1;SDS_P2;PMS_P1;PMS_P2;Temp;Humidity;BMP_temperature;BMP_pressure;BME280_temperature;BME280_humidity;BME280_pressure;Samples;Min_cycle;Max_cycle;Signal;HPM_P1;HPM_P2
2022/12/04 00:01:50;;;;;;;47.03;16.83;;;0.90;99.90;;;;;;5085383;28;20040;-71
2022/12/04 00:04:15;;;;;;;36.78;13.43;;;0.90;99.90;;;;;;5082089;28;20101;-71
2022/12/04 00:06:41;;;;;;;32.95;11.43;;;0.80;99.90;;;;;;5075787;28;20169;-71
2022/12/04 00:09:07;;;;;;;40.10;13.85;;;0.80;99.90;;;;;;5060871;28;20147;-70
2022/12/04 00:11:33;;;;;;;;;;;0.90;99.90;;;;;;5075701;28;20059;-71
2022/12/04 00:13:59;;;;;;;39.30;13.82;;;0.80;99.90;;;;;;5113353;28;19924;-71
2022/12/04 00:16:28;;;;;;;43.97;14.57;;;0.90;99.90;;;;;;5100051;28;20048;-71
2022/12/04 00:18:54;;;;;;;42.13;15.27;;;0.80;99.90;;;;;;5056047;28;20052;-72
2022/12/04 00:21:21;;;;;;;;;;;1.50;99.90;;;;;;5054444;28;20127;-71
2022/12/04 00:23:47;;;;;;;37.35;12.48;;;1.10;99.90;;;;;;5088680;28;19928;-71
2022/12/04 00:26:16;;;;;;;38.85;14.27;;;0.90;99.90;;;;;;5084404;28;20053;-71
2022/12/04 00:28:43;;;;;;;41.50;13.38;;;0.80;99.90;;;;;;5084347;28;20032;-71
2022/12/04 00:31:11;;;;;;;44.55;14.43;;;0.80;99.90;;;;;;5089165;28;20389;-71
2022/12/04 00:33:38;;;;;;;41.75;14.20;;;0.80;99.90;;;;;;5063905;28;20039;-71
2022/12/04 00:36:05;;;;;;;;;;;0.80;99.90;;;;;;5087120;28;20402;-71
2022/12/04 00:38:31;;;;;;;39.13;13.90;;;0.90;99.90;;;;;;5075883;28;19969;-71
2022/12/04 00:40:57;;;;;;;46.10;16.10;;;0.90;99.90;;;;;;5092062;28;20435;-71
2022/12/04 00:43:23;;;;;;;43.10;14.70;;;1.00;99.90;;;;;;5092004;28;20083;-71
2022/12/04 00:45:49;;;;;;;38.63;14.90;;;0.90;99.90;;;;;;5052351;28;20074;-71
2022/12/04 00:48:15;;;;;;;51.70;15.98;;;0.90;99.90;;;;;;5091378;28;20033;-71
2022/12/04 00:50:41;;;;;;;43.67;14.68;;;0.90;99.90;;;;;;5076841;28;20044;-71
2022/12/04 00:53:07;;;;;;;43.30;14.27;;;0.90;99.90;;;;;;5063262;28;20393;-71
2022/12/04 00:55:32;;;;;;;44.88;16.02;;;0.90;99.90;;;;;;5104037;28;20043;-71
2022/12/04 00:57:58;;;;;;;43.33;14.50;;;0.80;99.90;;;;;;5073812;28;20059;-71
2022/12/04 01:00:24;;;;;;;45.63;14.20;;;0.80;99.90;;;;;;5086381;28;20044;-72
2022/12/04 01:02:49;;;;;;;44.90;14.95;;;0.80;99.90;;;;;;5089730;28;20040;-71
2022/12/04 01:05:15;;;;;;;48.28;15.38;;;0.90;99.90;;;;;;5087264;28;20052;-71
2022/12/04 01:07:41;;;;;;;42.60;14.73;;;0.90;99.90;;;;;;5058010;28;20126;-71
2022/12/04 01:10:10;;;;;;;46.63;15.45;;;0.80;99.90;;;;;;5085087;28;20101;-71
2022/12/04 01:12:36;;;;;;;44.70;16.05;;;0.80;99.90;;;;;;5084849;28;20648;-71
2022/12/04 01:15:02;;;;;;;45.42;15.63;;;0.80;99.90;;;;;;5090468;28;20054;-71
2022/12/04 01:17:28;;;;;;;50.83;15.65;;;0.80;99.90;;;;;;5092925;28;20105;-71
2022/12/04 01:19:53;;;;;;;45.33;15.70;;;0.70;99.90;;;;;;5081048;28;20397;-71
2022/12/04 01:22:19;;;;;;;44.83;15.63;;;0.80;99.90;;;;;;5087364;28;20044;-71
2022/12/04 01:24:45;;;;;;;45.65;16.55;;;0.70;99.90;;;;;;5082688;28;20698;-71
2022/12/04 01:27:10;;;;;;;40.78;15.23;;;0.80;99.90;;;;;;5071474;28;20052;-71
2022/12/04 01:29:36;;;;;;;37.13;13.68;;;0.80;99.90;;;;;;5070530;28;20078;-71
2022/12/04 01:32:02;;;;;;;;;;;0.80;99.90;;;;;;5082809;28;20055;-71
2022/12/04 01:34:28;;;;;;;43.67;14.38;;;0.80;99.90;;;;;;5075145;28;19928;-72
2022/12/04 01:36:54;;;;;;;43.58;14.07;;;0.80;99.90;;;;;;5095991;28;20097;-71
2022/12/04 01:39:19;;;;;;;42.75;17.08;;;0.80;99.90;;;;;;5088698;28;20075;-71
2022/12/04 01:41:45;;;;;;;47.47;14.30;;;0.90;99.90;;;;;;5077449;28;20044;-71
2022/12/04 01:44:24;;;;;;;40.85;13.95;;;0.80;99.90;;;;;;5090279;28;20050;-71
2022/12/04 01:46:55;;;;;;;43.70;16.90;;;0.80;99.90;;;;;;5077670;28;20672;-71
2022/12/04 01:49:43;;;;;;;41.55;14.93;;;0.80;99.90;;;;;;5058299;28;20413;-72
2022/12/04 01:52:11;;;;;;;44.20;14.43;;;0.80;99.90;;;;;;5072441;28;20072;-71
2022/12/04 01:54:42;;;;;;;43.28;15.68;;;0.70;99.90;;;;;;5088890;28;20044;-71
2022/12/04 01:57:12;;;;;;;39.45;14.48;;;0.70;99.90;;;;;;5078768;28;20085;-71
2022/12/04 01:59:57;;;;;;;48.42;16.15;;;0.70;99.90;;;;;;5101414;28;20070;-71
2022/12/04 02:02:28;;;;;;;43.15;15.27;;;0.70;99.90;;;;;;5093738;28;20485;-71
2022/12/04 02:04:55;;;;;;;43.08;14.32;;;0.70;99.90;;;;;;5078899;28;20048;-71
2022/12/04 02:07:21;;;;;;;43.95;15.60;;;0.70;99.90;;;;;;5082722;28;20054;-71
2022/12/04 02:09:52;;;;;;;47.72;16.05;;;0.60;99.90;;;;;;5069491;28;20040;-71
2022/12/04 02:12:31;;;;;;;44.30;14.77;;;0.70;99.90;;;;;;5070712;28;20059;-71
2022/12/04 02:15:21;;;;;;;41.33;14.27;;;0.70;99.90;;;;;;5070344;28;20055;-70
2022/12/04 02:17:58;;;;;;;46.25;15.98;;;0.70;99.90;;;;;;5070153;28;20083;-71
2022/12/04 02:20:38;;;;;;;47.80;17.20;;;0.70;99.90;;;;;;5057928;28;20043;-71
2022/12/04 02:23:47;;;;;;;43.88;14.52;;;0.70;99.90;;;;;;5109657;28;20051;-70
2022/12/04 02:26:32;;;;;;;42.85;15.57;;;0.70;99.90;;;;;;4987758;28;20047;-71
2022/12/04 02:28:57;;;;;;;53.72;15.82;;;0.70;99.90;;;;;;4988218;28;20050;-71
2022/12/04 02:31:32;;;;;;;45.97;17.13;;;0.70;99.90;;;;;;5052408;28;20067;-71
2022/12/04 02:34:01;;;;;;;36.50;12.63;;;0.70;99.90;;;;;;5104954;28;20055;-71
2022/12/04 02:36:30;;;;;;;52.05;16.77;;;0.80;99.90;;;;;;5110199;28;20051;-70
2022/12/04 02:39:05;;;;;;;46.75;16.42;;;0.70;99.90;;;;;;5109903;28;20104;-71
2022/12/04 02:41:40;;;;;;;43.72;15.55;;;0.70;99.90;;;;;;5068464;28;20821;-71
2022/12/04 02:44:12;;;;;;;48.15;17.27;;;0.70;99.90;;;;;;5070386;28;20052;-71
2022/12/04 02:46:41;;;;;;;57.15;20.90;;;0.70;99.90;;;;;;5081347;28;20412;-72
2022/12/04 02:49:15;;;;;;;55.45;20.15;;;0.70;99.90;;;;;;5093867;28;20075;-71
2022/12/04 02:51:44;;;;;;;56.13;19.45;;;0.70;99.90;;;;;;5089435;28;20134;-71
2022/12/04 02:54:17;;;;;;;47.42;18.35;;;0.70;99.90;;;;;;5071976;28;20062;-71
2022/12/04 02:56:46;;;;;;;46.47;17.85;;;0.70;99.90;;;;;;5105508;28;20108;-71
2022/12/04 02:59:19;;;;;;;55.10;19.42;;;0.70;99.90;;;;;;5090052;28;20048;-71
2022/12/04 03:01:48;;;;;;;47.40;18.15;;;0.70;99.90;;;;;;5069503;28;20063;-71
2022/12/04 03:04:24;;;;;;;48.28;17.98;;;0.70;99.90;;;;;;5069035;28;20048;-71
2022/12/04 03:07:03;;;;;;;41.87;14.63;;;0.70;99.90;;;;;;5069268;28;20135;-71
2022/12/04 03:09:36;;;;;;;51.90;17.08;;;0.70;99.90;;;;;;5069616;28;20057;-71
2022/12/04 03:12:18;;;;;;;42.80;14.95;;;0.70;99.90;;;;;;5093593;28;20132;-71
2022/12/04 03:14:55;;;;;;;40.17;13.82;;;0.70;99.90;;;;;;5109825;28;20047;-71
2022/12/04 03:17:49;;;;;;;47.42;15.70;;;0.70;99.90;;;;;;5109830;28;20035;-71
2022/12/04 03:20:16;;;;;;;45.20;15.43;;;0.70;99.90;;;;;;5109318;28;20047;-71
2022/12/04 03:22:44;;;;;;;40.50;14.98;;;0.80;99.90;;;;;;5109243;28;20449;-71
2022/12/04 03:25:11;;;;;;;48.08;16.92;;;0.80;99.90;;;;;;5110001;28;20130;-71
2022/12/04 03:27:44;;;;;;;;;;;0.80;99.90;;;;;;5110741;28;20122;-71
2022/12/04 03:30:15;;;;;;;44.42;14.15;;;0.70;99.90;;;;;;5088926;28;20362;-71
2022/12/04 03:32:50;;;;;;;41.38;15.57;;;0.70;99.90;;;;;;5105524;28;20040;-72
2022/12/04 03:35:26;;;;;;;45.67;16.48;;;0.80;99.90;;;;;;5100572;28;20086;-71
2022/12/04 03:38:20;;;;;;;44.17;15.98;;;0.80;99.90;;;;;;5113272;28;20043;-71
2022/12/04 03:40:58;;;;;;;39.22;15.35;;;0.80;99.90;;;;;;5113399;28;20545;-71
2022/12/04 03:43:49;;;;;;;47.20;15.25;;;0.80;99.90;;;;;;5115111;28;20087;-71
2022/12/04 03:46:27;;;;;;;44.15;16.23;;;0.80;99.90;;;;;;5096056;28;20083;-72
2022/12/04 03:49:08;;;;;;;47.97;16.58;;;0.70;99.90;;;;;;5081299;28;20120;-71
2022/12/04 03:51:47;;;;;;;43.22;15.45;;;0.70;99.90;;;;;;5091888;28;20052;-71
2022/12/04 03:54:28;;;;;;;44.47;16.60;;;0.70;99.90;;;;;;5109547;28;20047;-71
2022/12/04 03:57:01;;;;;;;46.35;16.17;;;0.70;99.90;;;;;;5113174;28;20090;-71
2022/12/04 03:59:38;;;;;;;41.35;15.27;;;0.70;99.90;;;;;;5110953;28;20043;-71
2022/12/04 04:02:07;;;;;;;53.33;16.48;;;0.70;99.90;;;;;;5113456;28;20043;-71
2022/12/04 04:04:36;;;;;;;44.45;15.52;;;0.70;99.90;;;;;;5112762;28;20048;-71
2022/12/04 04:07:36;;;;;;;48.72;15.02;;;0.70;99.90;;;;;;5113094;28;20051;-71
2022/12/04 04:10:12;;;;;;;45.13;15.68;;;0.60;99.90;;;;;;5112926;28;20051;-71
2022/12/04 04:12:42;;;;;;;44.20;16.15;;;0.60;99.90;;;;;;5095473;28;20063;-71
2022/12/04 04:26:30;;;;;;;46.85;16.98;;;0.60;99.90;;;;;;5094998;28;20063;-71
2022/12/04 04:28:56;;;;;;;55.08;17.85;;;0.60;99.90;;;;;;5112794;28;20127;-71
2022/12/04 04:31:29;;;;;;;40.28;14.55;;;0.70;99.90;;;;;;5112860;28;20130;-71
2022/12/04 04:34:16;;;;;;;47.63;16.20;;;0.70;99.90;;;;;;5094290;28;20058;-72
2022/12/04 04:36:57;;;;;;;42.90;15.90;;;0.70;99.90;;;;;;5092118;28;20055;-71
2022/12/04 04:39:32;;;;;;;42.15;15.75;;;0.70;99.90;;;;;;5107565;28;20044;-71
2022/12/04 04:42:09;;;;;;;42.33;15.77;;;0.70;99.90;;;;;;5091762;28;20397;-71
2022/12/04 04:44:47;;;;;;;47.38;15.25;;;0.70;99.90;;;;;;5074666;28;20543;-71
2022/12/04 04:47:24;;;;;;;46.38;15.45;;;0.60;99.90;;;;;;5092344;28;20542;-71
2022/12/04 04:49:52;;;;;;;42.78;15.27;;;0.70;99.90;;;;;;5072684;28;20739;-71
2022/12/04 04:52:21;;;;;;;48.28;16.17;;;0.70;99.90;;;;;;5074811;28;20504;-71
2022/12/04 04:54:46;;;;;;;47.78;15.32;;;0.70;99.90;;;;;;5104639;28;20055;-72
2022/12/04 04:57:12;;;;;;;41.25;16.38;;;0.60;99.90;;;;;;5112682;28;20491;-72
2022/12/04 04:59:38;;;;;;;49.83;16.42;;;0.70;99.90;;;;;;5107694;28;20051;-71
2022/12/04 05:02:03;;;;;;;50.80;16.33;;;0.70;99.90;;;;;;5112302;28;20048;-71
2022/12/04 05:04:29;;;;;;;47.00;16.05;;;0.60;99.90;;;;;;5111682;28;20108;-71
2022/12/04 05:06:55;;;;;;;45.65;15.20;;;0.60;99.90;;;;;;5093781;28;20047;-71
2022/12/04 05:09:20;;;;;;;44.22;14.82;;;0.60;99.90;;;;;;5077053;28;20065;-72
2022/12/04 05:11:46;;;;;;;45.65;15.60;;;0.60;99.90;;;;;;5112065;28;20192;-71
2022/12/04 05:14:12;;;;;;;42.53;16.10;;;0.60;99.90;;;;;;5111924;28;20040;-71
2022/12/04 05:16:39;;;;;;;45.40;16.58;;;0.60;99.90;;;;;;5112103;28;20040;-71
2022/12/04 05:21:49;;;;;;;47.90;17.17;;;0.60;99.90;;;;;;5094063;28;20511;-72
2022/12/04 05:24:14;;;;;;;45.53;15.65;;;0.60;99.90;;;;;;5108697;28;20122;-71
2022/12/04 05:26:40;;;;;;;51.20;16.42;;;0.60;99.90;;;;;;5111874;28;20507;-71
2022/12/04 05:29:06;;;;;;;46.83;16.00;;;0.70;99.90;;;;;;5111613;28;20060;-71
2022/12/04 05:31:31;;;;;;;42.55;17.25;;;0.60;99.90;;;;;;5111967;28;20126;-71
2022/12/04 05:33:57;;;;;;;50.38;15.43;;;0.70;99.90;;;;;;5096956;28;20040;-71
2022/12/04 05:36:23;;;;;;;48.38;16.02;;;0.60;99.90;;;;;;5102006;28;20043;-71
2022/12/04 05:38:48;;;;;;;47.00;15.27;;;0.60;99.90;;;;;;5093365;28;20438;-71
2022/12/04 05:41:14;;;;;;;44.20;15.57;;;0.70;99.90;;;;;;5092236;28;20052;-71
2022/12/04 05:43:40;;;;;;;37.30;13.80;;;0.60;99.90;;;;;;5091755;28;20572;-71
2022/12/04 05:46:07;;;;;;;44.53;14.45;;;0.70;99.90;;;;;;5090804;28;20362;-71
2022/12/04 05:48:34;;;;;;;47.80;15.18;;;0.70;99.90;;;;;;5091370;28;20059;-71
2022/12/04 05:51:04;;;;;;;39.90;15.27;;;0.70;99.90;;;;;;5071309;28;20122;-71
2022/12/04 05:53:30;;;;;;;42.95;16.23;;;0.70;99.90;;;;;;5090975;28;20052;-71
2022/12/04 05:55:57;;;;;;;44.38;16.17;;;0.60;99.90;;;;;;5101447;28;20062;-73
2022/12/04 05:58:24;;;;;;;55.38;16.33;;;0.80;99.90;;;;;;5090522;28;20052;-71
2022/12/04 06:00:49;;;;;;;;;;;0.70;99.90;;;;;;5097833;28;20048;-71
2022/12/04 06:03:15;;;;;;;41.33;14.20;;;0.70;99.90;;;;;;5110746;28;19920;-71
2022/12/04 06:05:41;;;;;;;44.95;15.43;;;0.70;99.90;;;;;;5110281;28;20508;-71
2022/12/04 06:08:06;;;;;;;44.42;14.73;;;0.70;99.90;;;;;;5092333;28;20130;-71
2022/12/04 06:10:32;;;;;;;41.28;16.15;;;0.60;99.90;;;;;;5111285;28;20050;-71
2022/12/04 06:12:58;;;;;;;47.13;14.90;;;0.60;99.90;;;;;;5110960;28;20055;-71
2022/12/04 06:15:24;;;;;;;46.60;13.90;;;0.60;99.90;;;;;;5091512;28;20040;-71
2022/12/04 06:17:49;;;;;;;42.03;14.05;;;0.60;99.90;;;;;;5108721;28;20039;-71
2022/12/04 06:20:15;;;;;;;47.17;14.43;;;0.60;99.90;;;;;;5097579;28;20112;-71
2022/12/04 06:22:41;;;;;;;44.70;14.93;;;0.60;99.90;;;;;;5110780;28;20047;-72
2022/12/04 06:25:07;;;;;;;42.17;14.48;;;0.70;99.90;;;;;;5100502;28;20055;-71
2022/12/04 06:27:33;;;;;;;46.15;15.15;;;0.70;99.90;;;;;;5090943;28;20504;-71
2022/12/04 06:29:59;;;;;;;47.00;15.40;;;0.70;99.90;;;;;;5071846;28;20044;-71
2022/12/04 06:32:24;;;;;;;39.55;15.75;;;0.70;99.90;;;;;;5090635;28;20051;-71
2022/12/04 06:34:54;;;;;;;40.70;14.65;;;0.70;99.90;;;;;;5089490;28;20500;-71
2022/12/04 06:37:22;;;;;;;49.28;15.25;;;0.70;99.90;;;;;;5072264;28;20075;-71
2022/12/04 06:39:48;;;;;;;41.80;14.25;;;0.70;99.90;;;;;;5091795;28;20094;-72
2022/12/04 06:42:14;;;;;;;46.00;15.88;;;0.70;99.90;;;;;;5110495;28;20078;-72
2022/12/04 06:44:40;;;;;;;46.20;15.27;;;0.70;99.90;;;;;;5097286;28;20122;-71
2022/12/04 06:47:06;;;;;;;45.28;15.60;;;0.80;99.90;;;;;;5089943;28;20127;-71
2022/12/04 06:49:32;;;;;;;40.15;13.93;;;0.80;99.90;;;;;;5089517;28;20390;-71
2022/12/04 06:51:58;;;;;;;38.15;13.05;;;0.80;99.90;;;;;;5089890;28;20494;-72
2022/12/04 06:54:24;;;;;;;41.67;15.77;;;0.80;99.90;;;;;;5099837;28;20047;-71
2022/12/04 06:56:50;;;;;;;41.95;15.15;;;0.80;99.90;;;;;;5087244;28;20382;-71
2022/12/04 06:59:16;;;;;;;46.90;16.58;;;0.80;99.90;;;;;;5089646;28;20158;-71
2022/12/04 07:01:41;;;;;;;42.97;14.68;;;0.90;99.90;;;;;;5072264;28;20040;-71
2022/12/04 07:04:07;;;;;;;45.22;15.57;;;0.90;99.90;;;;;;5101864;28;20044;-71
2022/12/04 07:06:38;;;;;;;37.40;15.02;;;1.00;99.90;;;;;;5055214;28;20052;-71
2022/12/04 07:09:16;;;;;;;36.47;14.50;;;1.10;99.90;;;;;;5071046;28;20396;-71
2022/12/04 07:11:42;;;;;;;50.10;17.27;;;1.30;99.90;;;;;;5071316;28;20120;-71
2022/12/04 07:14:09;;;;;;;45.40;15.95;;;1.00;99.90;;;;;;5071561;28;20089;-72
2022/12/04 07:16:35;;;;;;;43.50;15.27;;;1.00;99.90;;;;;;5091643;28;20523;-71
2022/12/04 07:19:00;;;;;;;49.05;16.20;;;1.00;99.90;;;;;;5109660;28;20043;-72
2022/12/04 07:21:28;;;;;;;46.55;15.80;;;1.00;99.90;;;;;;5109738;28;20059;-71
2022/12/04 07:23:59;;;;;;;42.40;16.20;;;1.00;99.90;;;;;;5107973;28;20054;-71
2022/12/04 07:26:27;;;;;;;45.10;14.43;;;1.00;99.90;;;;;;5109745;28;20056;-72
2022/12/04 07:28:53;;;;;;;44.90;15.70;;;1.00;99.90;;;;;;5110377;28;20043;-71
2022/12/04 07:31:22;;;;;;;41.83;15.93;;;0.90;99.90;;;;;;5071831;28;20584;-71
2022/12/04 07:33:49;;;;;;;43.67;15.32;;;1.00;99.90;;;;;;5072029;28;20526;-71
2022/12/04 07:36:18;;;;;;;46.95;15.18;;;1.00;99.90;;;;;;5108535;28;20224;-71
2022/12/04 07:38:44;;;;;;;39.97;14.18;;;1.00;99.90;;;;;;5109786;28;20053;-71
2022/12/04 07:41:11;;;;;;;;;;;1.00;99.90;;;;;;5109696;28;20039;-71
2022/12/04 07:43:37;;;;;;;41.40;15.53;;;1.00;99.90;;;;;;5090238;28;19924;-71
2022/12/04 07:46:07;;;;;;;;;;;1.00;99.90;;;;;;5101952;28;20131;-72
2022/12/04 07:48:33;;;;;;;42.40;14.23;;;1.10;99.90;;;;;;5081979;28;19926;-71
2022/12/04 07:51:32;;;;;;;33.28;12.80;;;1.10;99.90;;;;;;5090599;28;20051;-71
2022/12/04 07:53:58;;;;;;;48.30;15.43;;;1.00;99.90;;;;;;5058629;28;20052;-71
2022/12/04 07:56:24;;;;;;;43.97;15.38;;;1.00;99.90;;;;;;5088470;28;20051;-71
2022/12/04 07:58:49;;;;;;;51.83;16.30;;;1.00;99.90;;;;;;5089281;28;20051;-71
2022/12/04 08:01:17;;;;;;;41.92;15.95;;;1.00;99.90;;;;;;5088392;28;20047;-71
2022/12/04 08:03:44;;;;;;;45.38;15.85;;;1.00;99.90;;;;;;5072308;28;20052;-71
2022/12/04 08:06:10;;;;;;;49.38;15.60;;;1.00;99.90;;;;;;5077937;28;20039;-71
2022/12/04 08:08:36;;;;;;;47.75;16.17;;;1.00;99.90;;;;;;5109169;28;20093;-71
2022/12/04 08:11:10;;;;;;;45.92;16.42;;;1.00;99.90;;;;;;5091944;28;20055;-71
2022/12/04 08:13:35;;;;;;;42.97;14.40;;;1.40;99.90;;;;;;5070791;28;20044;-75
2022/12/04 08:16:06;;;;;;;45.90;15.30;;;0.90;99.90;;;;;;5069364;28;20071;-71
2022/12/04 08:18:33;;;;;;;44.95;15.70;;;1.00;99.90;;;;;;5069215;28;20036;-71
2022/12/04 08:21:12;;;;;;;47.88;15.00;;;1.10;99.90;;;;;;5068211;28;20056;-71
2022/12/04 08:23:40;;;;;;;43.55;16.60;;;1.10;99.90;;;;;;5070535;28;20060;-70
2022/12/04 08:26:06;;;;;;;45.65;14.43;;;1.00;99.90;;;;;;5091707;28;20044;-70
2022/12/04 08:28:32;;;;;;;;;;;1.00;99.90;;;;;;5094201;28;20047;-70
2022/12/04 08:31:13;;;;;;;46.65;14.63;;;1.00;99.90;;;;;;5090367;28;20003;-71
2022/12/04 08:33:40;;;;;;;40.97;15.93;;;0.90;99.90;;;;;;5091774;28;20048;-71
2022/12/04 08:36:11;;;;;;;39.13;14.30;;;1.30;99.90;;;;;;5088937;28;20048;-70
2022/12/04 08:38:37;;;;;;;41.30;14.70;;;0.80;99.90;;;;;;5094462;28;20048;-71
2022/12/04 08:41:05;;;;;;;46.63;16.35;;;0.80;99.90;;;;;;5112755;28;20152;-70
2022/12/04 08:43:31;;;;;;;40.80;15.15;;;0.80;99.90;;;;;;5112316;28;20592;-71
2022/12/04 08:46:01;;;;;;;;;;;0.80;99.90;;;;;;5111339;28;20444;-71
2022/12/04 08:48:27;;;;;;;38.65;13.27;;;0.90;99.90;;;;;;5112482;28;20011;-71
2022/12/04 08:50:53;;;;;;;45.80;15.77;;;1.20;99.90;;;;;;5091629;28;20060;-70
2022/12/04 08:53:19;;;;;;;;;;;0.90;99.90;;;;;;5092146;28;20052;-71
2022/12/04 08:55:45;;;;;;;38.42;14.07;;;0.90;99.90;;;;;;5074209;28;19923;-71
2022/12/04 08:58:11;;;;;;;40.67;13.88;;;0.90;99.90;;;;;;5105616;28;20057;-72
2022/12/04 09:00:37;;;;;;;47.42;16.45;;;0.90;99.90;;;;;;5074523;28;20091;-71
2022/12/04 09:03:03;;;;;;;42.38;14.55;;;1.00;99.90;;;;;;5092544;28;20048;-71
2022/12/04 09:05:29;;;;;;;44.45;15.13;;;1.00;99.90;;;;;;5090392;28;20048;-71
2022/12/04 09:07:55;;;;;;;47.10;16.25;;;1.00;99.90;;;;;;5090360;28;20044;-71
2022/12/04 09:10:20;;;;;;;49.42;16.42;;;1.10;99.90;;;;;;5107925;28;20126;-71
2022/12/04 09:12:46;;;;;;;49.17;15.07;;;1.10;99.90;;;;;;5112636;28;20047;-71
2022/12/04 09:15:12;;;;;;;41.10;14.82;;;1.10;99.90;;;;;;5093925;28;20055;-71
2022/12/04 09:17:37;;;;;;;46.65;16.08;;;1.10;99.90;;;;;;5109102;28;20086;-70
2022/12/04 09:20:05;;;;;;;46.67;15.63;;;1.20;99.90;;;;;;5082841;28;20315;-75
2022/12/04 09:22:32;;;;;;;38.13;15.35;;;1.20;99.90;;;;;;5090864;28;20052;-75
2022/12/04 09:24:58;;;;;;;44.28;14.85;;;1.30;99.90;;;;;;5091419;28;20918;-71
2022/12/04 09:27:23;;;;;;;45.15;16.15;;;1.40;99.90;;;;;;5089582;28;20055;-71
2022/12/04 09:29:49;;;;;;;45.30;14.40;;;1.40;99.90;;;;;;5097143;28;20044;-71
2022/12/04 09:32:15;;;;;;;53.97;16.60;;;1.50;99.90;;;;;;5091589;28;20048;-73
2022/12/04 09:34:40;;;;;;;38.83;14.13;;;1.40;99.90;;;;;;5089122;28;20397;-72
2022/12/04 09:37:06;;;;;;;40.35;14.15;;;1.60;99.90;;;;;;5082636;28;20046;-71
2022/12/04 09:39:32;;;;;;;39.53;14.65;;;1.50;99.90;;;;;;5081313;28;20068;-71
2022/12/04 09:42:26;;;;;;;47.50;15.38;;;1.50;99.90;;;;;;5060193;28;20044;-72
2022/12/04 09:45:19;;;;;;;43.47;15.43;;;1.50;99.90;;;;;;5070738;28;20044;-72
2022/12/04 09:47:48;;;;;;;45.15;13.70;;;1.50;99.90;;;;;;5081483;28;20041;-70
2022/12/04 09:50:31;;;;;;;45.33;14.68;;;1.50;99.90;;;;;;5090630;28;20058;-71
2022/12/04 09:53:30;;;;;;;38.60;14.02;;;1.50;99.90;;;;;;5063583;28;20052;-71
2022/12/04 09:56:18;;;;;;;47.17;16.60;;;1.50;99.90;;;;;;5068825;28;21195;-71
2022/12/04 09:58:52;;;;;;;43.72;15.60;;;1.50;99.90;;;;;;5070004;28;20071;-72
2022/12/04 10:01:25;;;;;;;47.65;15.98;;;1.60;99.90;;;;;;5087364;28;20299;-73
2022/12/04 10:03:52;;;;;;;41.15;15.18;;;1.60;99.90;;;;;;5071899;28;20067;-72
2022/12/04 10:06:26;;;;;;;44.22;15.43;;;1.60;99.90;;;;;;5093819;28;20049;-71
2022/12/04 10:09:30;;;;;;;42.85;15.30;;;1.60;99.90;;;;;;5076197;28;20412;-71
2022/12/04 10:12:24;;;;;;;51.75;15.88;;;1.60;99.90;;;;;;5083715;28;20550;-70
2022/12/04 10:15:08;;;;;;;39.60;14.43;;;1.60;99.90;;;;;;5082263;28;20789;-71
2022/12/04 10:18:00;;;;;;;44.80;14.77;;;1.50;99.90;;;;;;5071258;28;20044;-71
2022/12/04 10:21:01;;;;;;;44.20;15.45;;;1.60;99.90;;;;;;5082919;28;20056;-72
2022/12/04 10:23:45;;;;;;;39.47;14.27;;;1.60;99.90;;;;;;5085216;28;20064;-72
2022/12/04 10:26:15;;;;;;;43.83;14.77;;;1.60;99.90;;;;;;5076761;28;20110;-71
2022/12/04 10:28:46;;;;;;;40.95;14.68;;;1.70;99.90;;;;;;5068366;28;20045;-71
2022/12/04 10:31:14;;;;;;;42.00;15.15;;;1.70;99.90;;;;;;5068549;28;20044;-71
2022/12/04 10:33:55;;;;;;;42.83;14.30;;;1.80;99.90;;;;;;5074870;28;20032;-71
2022/12/04 10:36:25;;;;;;;40.20;15.68;;;1.80;99.90;;;;;;5071175;28;20458;-73
2022/12/04 10:39:04;;;;;;;42.13;14.13;;;1.90;99.90;;;;;;5074069;28;20115;-71
2022/12/04 10:41:32;;;;;;;39.55;14.50;;;1.90;99.90;;;;;;5084114;28;20370;-71
2022/12/04 10:43:58;;;;;;;39.72;15.30;;;1.90;99.90;;;;;;5070475;28;20615;-72
2022/12/04 10:46:27;;;;;;;40.30;14.25;;;2.00;99.90;;;;;;5077874;28;20123;-71
2022/12/04 10:49:05;;;;;;;34.00;13.68;;;2.20;99.90;;;;;;5080003;28;20052;-71
2022/12/04 10:51:38;;;;;;;37.63;14.48;;;2.10;99.90;;;;;;5080803;28;20055;-71
2022/12/04 10:54:17;;;;;;;43.40;14.65;;;2.10;99.90;;;;;;5085911;28;20059;-72
2022/12/04 10:57:10;;;;;;;38.80;13.10;;;2.20;99.90;;;;;;5083116;28;20122;-71
2022/12/04 10:59:48;;;;;;;36.13;13.23;;;2.20;99.90;;;;;;5064803;28;20055;-71
2022/12/04 11:02:22;;;;;;;34.40;12.55;;;2.30;99.90;;;;;;5084763;28;20063;-70
2022/12/04 11:05:03;;;;;;;36.25;13.02;;;2.30;99.90;;;;;;5068417;28;20057;-71
2022/12/04 11:07:44;;;;;;;39.80;14.25;;;2.90;99.90;;;;;;5081693;28;20035;-72
2022/12/04 11:10:18;;;;;;;27.85;10.57;;;2.30;99.90;;;;;;5087225;28;20052;-72
2022/12/04 11:12:56;;;;;;;30.98;12.52;;;2.40;99.90;;;;;;5052703;28;20091;-71
2022/12/04 11:15:22;;;;;;;32.78;12.25;;;2.40;99.90;;;;;;5082142;28;20046;-71
2022/12/04 11:17:48;;;;;;;37.53;12.40;;;2.40;99.90;;;;;;5091534;28;20079;-71
2022/12/04 11:20:20;;;;;;;31.55;11.77;;;2.40;99.90;;;;;;5058886;28;20079;-70
2022/12/04 11:22:55;;;;;;;28.52;10.50;;;2.40;99.90;;;;;;5089147;28;20055;-71
2022/12/04 11:25:24;;;;;;;28.05;11.90;;;2.40;99.90;;;;;;5080108;28;20116;-71
2022/12/04 11:27:53;;;;;;;28.77;11.48;;;2.40;99.90;;;;;;5062184;28;20049;-71
2022/12/04 11:30:25;;;;;;;31.73;11.05;;;2.40;99.90;;;;;;5059313;28;20122;-72
2022/12/04 11:32:53;;;;;;;34.05;10.88;;;2.50;99.90;;;;;;5087904;28;20127;-71
2022/12/04 11:35:25;;;;;;;32.45;10.45;;;2.50;99.90;;;;;;5063018;28;20546;-71
2022/12/04 11:37:58;;;;;;;27.95;10.23;;;2.60;99.90;;;;;;5069107;28;20048;-71
2022/12/04 11:40:25;;;;;;;27.50;10.00;;;2.60;99.90;;;;;;5075361;28;20040;-71
2022/12/04 11:43:02;;;;;;;23.10;9.15;;;2.70;99.90;;;;;;5089203;28;20056;-71
2022/12/04 11:45:27;;;;;;;27.00;9.45;;;2.70;99.90;;;;;;5089628;28;20097;-72
2022/12/04 11:47:59;;;;;;;23.20;8.35;;;2.60;99.90;;;;;;5071956;28;20478;-70
2022/12/04 11:50:25;;;;;;;27.15;9.93;;;2.80;99.90;;;;;;5088224;28;20044;-71
2022/12/04 11:53:17;;;;;;;23.75;9.77;;;2.70;99.90;;;;;;5089112;28;20055;-71
2022/12/04 11:55:56;;;;;;;24.77;8.80;;;2.80;99.90;;;;;;5068179;28;20459;-70
2022/12/04 11:58:34;;;;;;;25.70;9.52;;;2.70;99.90;;;;;;5076695;28;20040;-71
2022/12/04 12:01:23;;;;;;;27.77;9.70;;;2.80;99.90;;;;;;5089233;28;20050;-70
2022/12/04 12:04:07;;;;;;;26.77;10.23;;;2.70;99.90;;;;;;5066578;28;20067;-71
2022/12/04 12:06:40;;;;;;;27.35;10.02;;;2.70;99.90;;;;;;5078065;28;21329;-71
2022/12/04 12:09:23;;;;;;;25.73;9.27;;;2.80;99.90;;;;;;5075874;28;20173;-71
2022/12/04 12:12:01;;;;;;;24.77;9.60;;;2.70;99.90;;;;;;5072088;28;20055;-71
2022/12/04 12:14:30;;;;;;;27.92;10.30;;;2.60;99.90;;;;;;5055741;28;20048;-71
2022/12/04 12:17:34;;;;;;;23.85;9.73;;;3.10;99.90;;;;;;5055155;28;20052;-71
2022/12/04 12:20:26;;;;;;;26.85;10.85;;;2.60;99.90;;;;;;5051947;28;20056;-71
2022/12/04 12:23:08;;;;;;;27.40;9.23;;;2.60;99.90;;;;;;5054788;28;20055;-71
2022/12/04 12:25:33;;;;;;;21.92;7.97;;;2.60;99.90;;;;;;5072207;28;20055;-71
2022/12/04 12:28:28;;;;;;;25.40;8.82;;;2.60;99.90;;;;;;5063541;28;20426;-71
2022/12/04 12:31:11;;;;;;;25.13;9.27;;;2.70;99.90;;;;;;5092125;28;20129;-71
2022/12/04 12:33:50;;;;;;;24.92;8.82;;;2.70;99.90;;;;;;5112604;28;20039;-71
2022/12/04 12:36:20;;;;;;;26.15;10.55;;;2.70;99.90;;;;;;5087622;28;20052;-71
2022/12/04 12:38:52;;;;;;;23.42;9.38;;;2.70;99.90;;;;;;5074043;28;20044;-71
2022/12/04 12:41:25;;;;;;;28.70;10.05;;;2.70;99.90;;;;;;5091297;28;20040;-71
2022/12/04 12:44:01;;;;;;;27.90;10.38;;;2.70;99.90;;;;;;5091399;28;20733;-71
2022/12/04 12:46:36;;;;;;;25.77;9.53;;;2.80;99.90;;;;;;5083671;28;20058;-71
2022/12/04 12:49:09;;;;;;;32.78;11.57;;;2.80;99.90;;;;;;5090994;28;20058;-72
2022/12/04 12:51:42;;;;;;;30.73;10.90;;;2.70;99.90;;;;;;5090229;28;20127;-72
2022/12/04 12:54:39;;;;;;;29.70;10.85;;;2.70;99.90;;;;;;5090874;28;20044;-72
2022/12/04 12:57:36;;;;;;;25.45;10.10;;;2.70;99.90;;;;;;5079261;28;20337;-71
2022/12/04 13:00:02;;;;;;;23.80;9.07;;;2.80;99.90;;;;;;5080966;28;20063;-71
2022/12/04 13:02:34;;;;;;;26.38;9.60;;;2.80;99.90;;;;;;5081754;28;20051;-71
2022/12/04 13:05:05;;;;;;;26.13;9.82;;;2.80;99.90;;;;;;5088480;28;20059;-71
2022/12/04 13:07:55;;;;;;;29.50;10.75;;;2.80;99.90;;;;;;5054311;28;20052;-72
2022/12/04 13:10:30;;;;;;;29.27;11.50;;;2.80;99.90;;;;;;5089511;28;20040;-71
2022/12/04 13:13:13;;;;;;;31.25;9.80;;;2.80;99.90;;;;;;5062033;28;20045;-71
2022/12/04 13:15:47;;;;;;;30.05;10.50;;;2.80;99.90;;;;;;5098165;28;20397;-71
2022/12/04 13:18:35;;;;;;;25.25;9.32;;;2.80;99.90;;;;;;5064740;28;20473;-71